EGAE/LDY METAR and TAF weather

Enter ICAO airport designator
Station Type Date Time Source
EGAE METAR 2019/06/17 12:20 UTC NOAA

EGAE 171220Z 22017KT 9999 VCSH FEW015 BKN025 BKN042 16/11 Q1006


Station Type Date Time Source
EGAE Decoded METAR 2019/06/17 12:20 UTC NOAA

Eglinton / Londonderr, United Kingdom (EGAE) 55-03N 007-09W
Jun 17, 2019 - 08:20 AM EDT / 2019.06.17 1220 UTC
Wind: from the SW (220 degrees) at 20 MPH (17 KT):0
Visibility: greater than 7 mile(s):0
Sky conditions: mostly cloudy
Weather: showers in the vicinity
Temperature: 60 F (16 C)
Dew Point: 51 F (11 C)
Relative Humidity: 72%
Pressure (altimeter): 29.71 in. Hg (1006 hPa)
ob: EGAE 171220Z 22017KT 9999 VCSH FEW015 BKN025 BKN042 16/11 Q1006
cycle: 12

Station Type Date Time Source
EGAE TAF UTC NOAA

Error!

Example: see airport list